createdAt,value
2019-03-02T19:06:35.195Z,100285.59
2019-03-02T19:09:09.882Z,100276.69
2019-03-02T19:11:43.400Z,100263.66
2019-03-02T19:14:20.929Z,100261.27
2019-03-02T19:16:52.365Z,100252.56
2019-03-02T19:19:25.893Z,100252.07
2019-03-02T19:21:59.420Z,100242.95
2019-03-02T19:24:32.912Z,100245.82
2019-03-02T19:27:06.492Z,100239.38
2019-03-02T19:29:39.851Z,100238.91
2019-03-02T19:32:13.312Z,100246.28
2019-03-02T19:34:46.761Z,100240.27
2019-03-02T19:37:20.281Z,100239.38
2019-03-02T19:39:53.647Z,100234.71
2019-03-02T19:42:27.458Z,100237.58
2019-03-02T19:45:00.907Z,100230.80
2019-03-02T19:47:34.478Z,100221.88
2019-03-02T19:50:13.120Z,100203.83
2019-03-02T19:52:46.886Z,100207.75
2019-03-02T19:55:20.564Z,100216.53
2019-03-02T19:57:54.007Z,100211.34
2019-03-02T20:00:30.420Z,100211.25
2019-03-02T20:03:03.972Z,100208.20
2019-03-02T20:05:37.470Z,100197.97
2019-03-02T20:08:10.945Z,100201.95
2019-03-02T20:10:44.792Z,100193.00
2019-03-02T20:13:21.609Z,100185.50
2019-03-02T20:15:55.148Z,100182.48
2019-03-02T20:18:28.572Z,100185.95
2019-03-02T20:21:01.963Z,100178.56
2019-03-02T20:23:37.428Z,100164.53
2019-03-02T20:26:10.552Z,100166.67
2019-03-02T20:28:43.887Z,100159.56
2019-03-02T20:31:17.288Z,100166.31
2019-03-02T20:33:50.723Z,100168.73
2019-03-02T20:36:24.082Z,100159.31
2019-03-02T20:38:57.476Z,100159.70
2019-03-02T20:41:31.121Z,100156.22
2019-03-02T20:44:04.673Z,100152.72
2019-03-02T20:46:38.074Z,100153.58
2019-03-02T20:49:11.505Z,100153.16
2019-03-02T20:51:44.974Z,100145.64
2019-03-02T20:54:18.398Z,100137.00
2019-03-02T20:56:51.839Z,100131.89
2019-03-02T20:59:25.258Z,100136.16
2019-03-02T21:01:58.653Z,100128.41
2019-03-02T21:04:32.053Z,100117.15
2019-03-02T21:07:05.518Z,100117.20
2019-03-02T21:09:40.685Z,100119.31
2019-03-02T21:12:14.296Z,100113.67
2019-03-02T21:14:47.720Z,100104.61
2019-03-02T21:17:21.190Z,100108.29
2019-03-02T21:19:55.024Z,100103.27
2019-03-02T21:22:28.554Z,100097.46
2019-03-02T21:25:01.948Z,100102.58
2019-03-02T21:27:35.418Z,100095.41
2019-03-02T21:30:11.903Z,100088.55
2019-03-02T21:32:46.128Z,100088.58
2019-03-02T21:35:19.762Z,100075.53
2019-03-02T21:37:53.296Z,100075.80
2019-03-02T21:40:29.232Z,100073.97
2019-03-02T21:43:02.616Z,100072.92
2019-03-02T21:45:36.489Z,100069.55
2019-03-02T21:48:09.917Z,100056.33
2019-03-02T21:50:46.502Z,100055.28
2019-03-02T21:53:19.890Z,100051.34
2019-03-02T21:55:53.357Z,100056.37
2019-03-02T21:58:26.789Z,100044.22
2019-03-02T22:01:00.183Z,100041.70
2019-03-02T22:03:33.618Z,100040.09
2019-03-02T22:06:07.040Z,100042.02
2019-03-02T22:08:40.800Z,100030.44
2019-03-02T22:11:15.782Z,100029.27
2019-03-02T22:13:49.240Z,100023.34
2019-03-02T22:16:22.776Z,100020.02
2019-03-02T22:18:56.230Z,100020.47
2019-03-02T22:21:29.671Z,100019.47
2019-03-02T22:24:03.067Z,100018.48
2019-03-02T22:26:36.538Z,100019.92
2019-03-02T22:29:09.971Z,100022.48
2019-03-02T22:31:43.401Z,100023.87
2019-03-02T22:34:16.798Z,100018.28
2019-03-02T22:36:50.357Z,100019.11
2019-03-02T22:39:23.778Z,100006.25
2019-03-02T22:41:57.144Z,99998.66
2019-03-02T22:44:30.478Z,99993.70
2019-03-02T22:47:04.019Z,99997.81
2019-03-02T22:49:37.377Z,99990.59
2019-03-02T22:52:10.797Z,99992.80
2019-03-02T22:54:44.334Z,99994.30
2019-03-02T22:57:17.870Z,99987.59
2019-03-02T22:59:59.934Z,99994.36
2019-03-02T23:02:32.255Z,99988.86
2019-03-02T23:05:05.699Z,99989.62
2019-03-02T23:07:39.279Z,99980.88
2019-03-02T23:10:12.742Z,99991.45
2019-03-02T23:12:46.227Z,99981.48
2019-03-02T23:15:21.776Z,99992.83
2019-03-02T23:17:55.206Z,99984.43
2019-03-02T23:20:28.680Z,99983.88
2019-03-02T23:23:02.269Z,99985.70
2019-03-02T23:25:35.614Z,99985.33
2019-03-02T23:28:09.028Z,99987.23
2019-03-02T23:30:42.509Z,99983.48
2019-03-02T23:33:16.299Z,99967.67
2019-03-02T23:35:49.689Z,99963.67
2019-03-02T23:38:23.192Z,99964.40
2019-03-02T23:40:57.384Z,99966.76
2019-03-02T23:43:30.823Z,99965.59
2019-03-02T23:46:04.237Z,99962.64
2019-03-02T23:48:37.660Z,99964.05
2019-03-02T23:51:11.066Z,99951.47
2019-03-02T23:53:44.516Z,99958.82
2019-03-02T23:56:18.142Z,99946.67
2019-03-02T23:58:51.650Z,99945.22
